sensor_id;sensor_type;location;lat;lon;timestamp;P1;durP1;ratioP1;P2;durP2;ratioP2
2944;SDS011;1482;51.398;7.128;2023-07-02T00:01:09;5.03;;;4.20;;
2944;SDS011;1482;51.398;7.128;2023-07-02T00:03:34;5.80;;;4.80;;
2944;SDS011;1482;51.398;7.128;2023-07-02T00:06:00;5.47;;;4.40;;
2944;SDS011;1482;51.398;7.128;2023-07-02T00:08:25;5.10;;;4.60;;
2944;SDS011;1482;51.398;7.128;2023-07-02T00:10:51;4.33;;;3.93;;
2944;SDS011;1482;51.398;7.128;2023-07-02T00:13:16;11.50;;;4.97;;
2944;SDS011;1482;51.398;7.128;2023-07-02T00:15:42;7.70;;;4.43;;
2944;SDS011;1482;51.398;7.128;2023-07-02T00:18:07;6.80;;;4.70;;
2944;SDS011;1482;51.398;7.128;2023-07-02T00:20:33;11.77;;;5.37;;
2944;SDS011;1482;51.398;7.128;2023-07-02T00:23:02;10.23;;;5.30;;
2944;SDS011;1482;51.398;7.128;2023-07-02T00:25:28;8.97;;;4.53;;
2944;SDS011;1482;51.398;7.128;2023-07-02T00:27:54;9.17;;;5.10;;
2944;SDS011;1482;51.398;7.128;2023-07-02T00:30:20;6.83;;;5.47;;
2944;SDS011;1482;51.398;7.128;2023-07-02T00:32:45;5.73;;;4.13;;
2944;SDS011;1482;51.398;7.128;2023-07-02T00:35:11;6.57;;;4.77;;
2944;SDS011;1482;51.398;7.128;2023-07-02T00:37:36;9.00;;;5.20;;
2944;SDS011;1482;51.398;7.128;2023-07-02T00:40:02;10.43;;;5.00;;
2944;SDS011;1482;51.398;7.128;2023-07-02T00:42:28;4.80;;;4.30;;
2944;SDS011;1482;51.398;7.128;2023-07-02T00:44:55;6.87;;;4.93;;
2944;SDS011;1482;51.398;7.128;2023-07-02T00:47:22;7.20;;;5.43;;
2944;SDS011;1482;51.398;7.128;2023-07-02T00:49:48;8.20;;;5.00;;
2944;SDS011;1482;51.398;7.128;2023-07-02T00:52:13;10.13;;;4.90;;
2944;SDS011;1482;51.398;7.128;2023-07-02T00:54:40;7.67;;;5.50;;
2944;SDS011;1482;51.398;7.128;2023-07-02T00:57:05;5.77;;;5.23;;
2944;SDS011;1482;51.398;7.128;2023-07-02T00:59:32;7.20;;;5.57;;
2944;SDS011;1482;51.398;7.128;2023-07-02T01:02:02;7.20;;;4.90;;
2944;SDS011;1482;51.398;7.128;2023-07-02T01:04:31;10.73;;;5.40;;
2944;SDS011;1482;51.398;7.128;2023-07-02T01:06:57;6.77;;;4.67;;
2944;SDS011;1482;51.398;7.128;2023-07-02T01:09:23;6.50;;;5.60;;
2944;SDS011;1482;51.398;7.128;2023-07-02T01:12:01;16.30;;;5.70;;
2944;SDS011;1482;51.398;7.128;2023-07-02T01:14:33;7.60;;;5.10;;
2944;SDS011;1482;51.398;7.128;2023-07-02T01:17:02;10.57;;;5.93;;
2944;SDS011;1482;51.398;7.128;2023-07-02T01:19:46;7.80;;;6.33;;
2944;SDS011;1482;51.398;7.128;2023-07-02T01:22:17;9.77;;;5.70;;
2944;SDS011;1482;51.398;7.128;2023-07-02T01:24:44;8.63;;;5.10;;
2944;SDS011;1482;51.398;7.128;2023-07-02T01:27:14;9.87;;;5.47;;
2944;SDS011;1482;51.398;7.128;2023-07-02T01:29:40;12.57;;;5.10;;
2944;SDS011;1482;51.398;7.128;2023-07-02T01:32:06;12.00;;;5.50;;
2944;SDS011;1482;51.398;7.128;2023-07-02T01:34:33;11.83;;;5.10;;
2944;SDS011;1482;51.398;7.128;2023-07-02T01:36:59;11.13;;;5.90;;
2944;SDS011;1482;51.398;7.128;2023-07-02T01:39:25;12.27;;;6.30;;
2944;SDS011;1482;51.398;7.128;2023-07-02T01:41:51;11.40;;;5.93;;
2944;SDS011;1482;51.398;7.128;2023-07-02T01:44:18;9.70;;;5.80;;
2944;SDS011;1482;51.398;7.128;2023-07-02T01:46:45;11.10;;;6.00;;
2944;SDS011;1482;51.398;7.128;2023-07-02T01:49:17;9.63;;;6.17;;
2944;SDS011;1482;51.398;7.128;2023-07-02T01:54:20;8.50;;;6.07;;
2944;SDS011;1482;51.398;7.128;2023-07-02T01:56:47;9.00;;;5.00;;
2944;SDS011;1482;51.398;7.128;2023-07-02T01:59:12;6.50;;;5.87;;
2944;SDS011;1482;51.398;7.128;2023-07-02T02:01:38;9.23;;;6.90;;
2944;SDS011;1482;51.398;7.128;2023-07-02T02:04:07;12.37;;;6.30;;
2944;SDS011;1482;51.398;7.128;2023-07-02T02:06:33;14.00;;;7.40;;
2944;SDS011;1482;51.398;7.128;2023-07-02T02:08:59;9.77;;;6.47;;
2944;SDS011;1482;51.398;7.128;2023-07-02T02:11:25;8.83;;;6.57;;
2944;SDS011;1482;51.398;7.128;2023-07-02T02:13:50;14.60;;;8.77;;
2944;SDS011;1482;51.398;7.128;2023-07-02T02:16:16;10.30;;;7.70;;
2944;SDS011;1482;51.398;7.128;2023-07-02T02:18:41;11.40;;;7.17;;
2944;SDS011;1482;51.398;7.128;2023-07-02T02:21:07;9.87;;;7.13;;
2944;SDS011;1482;51.398;7.128;2023-07-02T02:23:33;16.13;;;7.30;;
2944;SDS011;1482;51.398;7.128;2023-07-02T02:25:58;15.90;;;7.57;;
2944;SDS011;1482;51.398;7.128;2023-07-02T02:28:24;11.40;;;7.43;;
2944;SDS011;1482;51.398;7.128;2023-07-02T02:30:49;14.00;;;7.87;;
2944;SDS011;1482;51.398;7.128;2023-07-02T02:33:15;16.57;;;9.30;;
2944;SDS011;1482;51.398;7.128;2023-07-02T02:35:40;11.83;;;8.60;;
2944;SDS011;1482;51.398;7.128;2023-07-02T02:38:06;16.27;;;8.10;;
2944;SDS011;1482;51.398;7.128;2023-07-02T02:40:31;15.83;;;9.20;;
2944;SDS011;1482;51.398;7.128;2023-07-02T02:42:57;11.03;;;8.50;;
2944;SDS011;1482;51.398;7.128;2023-07-02T02:45:22;14.90;;;8.27;;
2944;SDS011;1482;51.398;7.128;2023-07-02T02:47:48;19.63;;;9.50;;
2944;SDS011;1482;51.398;7.128;2023-07-02T02:50:13;17.37;;;8.90;;
2944;SDS011;1482;51.398;7.128;2023-07-02T02:52:39;16.60;;;10.07;;
2944;SDS011;1482;51.398;7.128;2023-07-02T02:55:05;13.93;;;9.70;;
2944;SDS011;1482;51.398;7.128;2023-07-02T02:57:32;14.27;;;10.07;;
2944;SDS011;1482;51.398;7.128;2023-07-02T02:59:58;20.40;;;10.53;;
2944;SDS011;1482;51.398;7.128;2023-07-02T03:02:24;21.40;;;10.07;;
2944;SDS011;1482;51.398;7.128;2023-07-02T03:04:50;15.17;;;8.87;;
2944;SDS011;1482;51.398;7.128;2023-07-02T03:07:16;18.90;;;10.30;;
2944;SDS011;1482;51.398;7.128;2023-07-02T03:09:41;23.93;;;10.77;;
2944;SDS011;1482;51.398;7.128;2023-07-02T03:12:07;17.10;;;10.27;;
2944;SDS011;1482;51.398;7.128;2023-07-02T03:14:33;18.43;;;10.03;;
2944;SDS011;1482;51.398;7.128;2023-07-02T03:16:58;18.43;;;10.63;;
2944;SDS011;1482;51.398;7.128;2023-07-02T03:19:24;18.90;;;10.30;;
2944;SDS011;1482;51.398;7.128;2023-07-02T03:21:50;23.87;;;10.23;;
2944;SDS011;1482;51.398;7.128;2023-07-02T03:24:15;22.63;;;10.97;;
2944;SDS011;1482;51.398;7.128;2023-07-02T03:26:44;19.70;;;11.23;;
2944;SDS011;1482;51.398;7.128;2023-07-02T03:29:10;23.07;;;11.10;;
2944;SDS011;1482;51.398;7.128;2023-07-02T03:31:36;14.50;;;10.13;;
2944;SDS011;1482;51.398;7.128;2023-07-02T03:34:08;23.07;;;11.00;;
2944;SDS011;1482;51.398;7.128;2023-07-02T03:36:35;17.60;;;11.80;;
2944;SDS011;1482;51.398;7.128;2023-07-02T03:39:04;20.67;;;11.17;;
2944;SDS011;1482;51.398;7.128;2023-07-02T03:41:30;19.37;;;11.87;;
2944;SDS011;1482;51.398;7.128;2023-07-02T03:43:56;21.17;;;12.77;;
2944;SDS011;1482;51.398;7.128;2023-07-02T03:46:21;18.60;;;10.30;;
2944;SDS011;1482;51.398;7.128;2023-07-02T03:48:47;19.03;;;11.77;;
2944;SDS011;1482;51.398;7.128;2023-07-02T03:51:13;17.17;;;10.77;;
2944;SDS011;1482;51.398;7.128;2023-07-02T03:53:39;21.77;;;12.57;;
2944;SDS011;1482;51.398;7.128;2023-07-02T03:56:05;24.83;;;12.50;;
2944;SDS011;1482;51.398;7.128;2023-07-02T03:58:31;21.77;;;12.30;;
2944;SDS011;1482;51.398;7.128;2023-07-02T04:00:57;22.80;;;11.90;;
2944;SDS011;1482;51.398;7.128;2023-07-02T04:03:22;22.27;;;13.97;;
2944;SDS011;1482;51.398;7.128;2023-07-02T04:05:48;32.23;;;12.97;;
2944;SDS011;1482;51.398;7.128;2023-07-02T04:08:14;22.97;;;13.20;;
2944;SDS011;1482;51.398;7.128;2023-07-02T04:10:40;21.90;;;13.37;;
2944;SDS011;1482;51.398;7.128;2023-07-02T04:13:06;23.10;;;12.70;;
2944;SDS011;1482;51.398;7.128;2023-07-02T04:15:32;25.63;;;13.80;;
2944;SDS011;1482;51.398;7.128;2023-07-02T04:17:57;30.50;;;13.30;;
2944;SDS011;1482;51.398;7.128;2023-07-02T04:20:23;21.80;;;13.13;;
2944;SDS011;1482;51.398;7.128;2023-07-02T04:22:50;27.37;;;15.27;;
2944;SDS011;1482;51.398;7.128;2023-07-02T04:25:15;29.60;;;13.53;;
2944;SDS011;1482;51.398;7.128;2023-07-02T04:27:44;19.60;;;12.83;;
2944;SDS011;1482;51.398;7.128;2023-07-02T04:30:10;21.17;;;14.00;;
2944;SDS011;1482;51.398;7.128;2023-07-02T04:32:37;27.23;;;13.93;;
2944;SDS011;1482;51.398;7.128;2023-07-02T04:35:04;22.20;;;14.70;;
2944;SDS011;1482;51.398;7.128;2023-07-02T04:37:31;23.20;;;14.87;;
2944;SDS011;1482;51.398;7.128;2023-07-02T04:39:57;27.03;;;14.73;;
2944;SDS011;1482;51.398;7.128;2023-07-02T04:42:22;26.50;;;14.60;;
2944;SDS011;1482;51.398;7.128;2023-07-02T04:44:52;25.53;;;16.13;;
2944;SDS011;1482;51.398;7.128;2023-07-02T04:47:18;29.13;;;14.33;;
2944;SDS011;1482;51.398;7.128;2023-07-02T04:49:44;26.87;;;12.77;;
2944;SDS011;1482;51.398;7.128;2023-07-02T04:52:10;26.40;;;15.60;;
2944;SDS011;1482;51.398;7.128;2023-07-02T04:54:36;26.87;;;14.73;;
2944;SDS011;1482;51.398;7.128;2023-07-02T04:57:01;24.30;;;14.17;;
2944;SDS011;1482;51.398;7.128;2023-07-02T04:59:27;29.67;;;16.17;;
2944;SDS011;1482;51.398;7.128;2023-07-02T05:01:52;30.67;;;16.67;;
2944;SDS011;1482;51.398;7.128;2023-07-02T05:04:18;23.43;;;15.07;;
2944;SDS011;1482;51.398;7.128;2023-07-02T05:06:44;27.07;;;15.17;;
2944;SDS011;1482;51.398;7.128;2023-07-02T05:09:09;28.13;;;16.73;;
2944;SDS011;1482;51.398;7.128;2023-07-02T05:11:35;23.20;;;14.80;;
2944;SDS011;1482;51.398;7.128;2023-07-02T05:14:00;25.77;;;16.30;;
2944;SDS011;1482;51.398;7.128;2023-07-02T05:16:26;36.97;;;18.73;;
2944;SDS011;1482;51.398;7.128;2023-07-02T05:18:51;33.83;;;16.67;;
2944;SDS011;1482;51.398;7.128;2023-07-02T05:21:17;26.33;;;15.50;;
2944;SDS011;1482;51.398;7.128;2023-07-02T05:23:43;26.87;;;16.10;;
2944;SDS011;1482;51.398;7.128;2023-07-02T05:26:08;25.50;;;14.87;;
2944;SDS011;1482;51.398;7.128;2023-07-02T05:28:34;23.80;;;13.90;;
2944;SDS011;1482;51.398;7.128;2023-07-02T05:30:59;28.87;;;17.47;;
2944;SDS011;1482;51.398;7.128;2023-07-02T05:33:25;23.40;;;16.20;;
2944;SDS011;1482;51.398;7.128;2023-07-02T05:35:50;22.37;;;17.00;;
2944;SDS011;1482;51.398;7.128;2023-07-02T05:38:17;26.97;;;16.93;;
2944;SDS011;1482;51.398;7.128;2023-07-02T05:40:44;25.53;;;18.07;;
2944;SDS011;1482;51.398;7.128;2023-07-02T05:43:10;26.43;;;17.93;;
2944;SDS011;1482;51.398;7.128;2023-07-02T05:45:35;24.40;;;16.47;;
2944;SDS011;1482;51.398;7.128;2023-07-02T05:48:01;31.87;;;18.40;;
2944;SDS011;1482;51.398;7.128;2023-07-02T05:50:26;30.23;;;18.60;;
2944;SDS011;1482;51.398;7.128;2023-07-02T05:52:52;25.07;;;17.27;;
2944;SDS011;1482;51.398;7.128;2023-07-02T05:55:17;31.60;;;18.97;;
2944;SDS011;1482;51.398;7.128;2023-07-02T05:57:43;26.07;;;18.13;;
2944;SDS011;1482;51.398;7.128;2023-07-02T06:00:09;24.50;;;17.00;;
2944;SDS011;1482;51.398;7.128;2023-07-02T06:02:35;25.83;;;18.40;;
2944;SDS011;1482;51.398;7.128;2023-07-02T06:05:01;27.20;;;17.77;;
2944;SDS011;1482;51.398;7.128;2023-07-02T06:07:27;25.60;;;17.40;;
2944;SDS011;1482;51.398;7.128;2023-07-02T06:09:52;30.57;;;18.57;;
2944;SDS011;1482;51.398;7.128;2023-07-02T06:12:18;30.17;;;18.40;;
2944;SDS011;1482;51.398;7.128;2023-07-02T06:14:45;27.20;;;18.10;;
2944;SDS011;1482;51.398;7.128;2023-07-02T06:17:11;32.20;;;19.87;;
2944;SDS011;1482;51.398;7.128;2023-07-02T06:19:36;30.40;;;21.17;;
2944;SDS011;1482;51.398;7.128;2023-07-02T06:22:03;27.03;;;19.27;;
2944;SDS011;1482;51.398;7.128;2023-07-02T06:24:29;24.47;;;18.60;;
2944;SDS011;1482;51.398;7.128;2023-07-02T06:26:54;27.20;;;19.77;;
2944;SDS011;1482;51.398;7.128;2023-07-02T06:29:21;30.13;;;18.57;;
2944;SDS011;1482;51.398;7.128;2023-07-02T06:31:48;27.17;;;18.20;;
2944;SDS011;1482;51.398;7.128;2023-07-02T06:34:14;24.87;;;19.33;;
2944;SDS011;1482;51.398;7.128;2023-07-02T06:36:39;28.37;;;18.50;;
2944;SDS011;1482;51.398;7.128;2023-07-02T06:39:05;25.47;;;18.30;;
2944;SDS011;1482;51.398;7.128;2023-07-02T06:41:31;22.07;;;16.73;;
2944;SDS011;1482;51.398;7.128;2023-07-02T06:43:56;25.97;;;18.53;;
2944;SDS011;1482;51.398;7.128;2023-07-02T06:46:22;27.60;;;19.17;;
2944;SDS011;1482;51.398;7.128;2023-07-02T06:48:47;22.53;;;16.90;;
2944;SDS011;1482;51.398;7.128;2023-07-02T06:51:13;25.57;;;18.00;;
2944;SDS011;1482;51.398;7.128;2023-07-02T06:53:40;22.00;;;16.73;;
2944;SDS011;1482;51.398;7.128;2023-07-02T06:56:09;20.43;;;15.80;;
2944;SDS011;1482;51.398;7.128;2023-07-02T06:58:35;17.93;;;15.60;;
2944;SDS011;1482;51.398;7.128;2023-07-02T07:01:01;20.60;;;14.63;;
2944;SDS011;1482;51.398;7.128;2023-07-02T07:03:26;18.93;;;15.20;;
2944;SDS011;1482;51.398;7.128;2023-07-02T07:05:52;19.73;;;15.43;;
2944;SDS011;1482;51.398;7.128;2023-07-02T07:08:18;17.10;;;13.97;;
2944;SDS011;1482;51.398;7.128;2023-07-02T07:10:43;18.73;;;15.73;;
2944;SDS011;1482;51.398;7.128;2023-07-02T07:13:10;20.20;;;15.00;;
2944;SDS011;1482;51.398;7.128;2023-07-02T07:15:36;16.77;;;14.77;;
2944;SDS011;1482;51.398;7.128;2023-07-02T07:18:02;20.17;;;16.20;;
2944;SDS011;1482;51.398;7.128;2023-07-02T07:20:28;20.77;;;18.77;;
2944;SDS011;1482;51.398;7.128;2023-07-02T07:22:55;21.53;;;16.10;;
2944;SDS011;1482;51.398;7.128;2023-07-02T07:25:20;21.33;;;15.97;;
2944;SDS011;1482;51.398;7.128;2023-07-02T07:27:46;18.00;;;16.30;;
2944;SDS011;1482;51.398;7.128;2023-07-02T07:30:11;16.17;;;14.50;;
2944;SDS011;1482;51.398;7.128;2023-07-02T07:32:39;29.80;;;16.73;;
2944;SDS011;1482;51.398;7.128;2023-07-02T07:35:05;19.73;;;14.13;;
2944;SDS011;1482;51.398;7.128;2023-07-02T07:37:31;20.57;;;15.33;;
2944;SDS011;1482;51.398;7.128;2023-07-02T07:39:57;21.63;;;16.77;;
2944;SDS011;1482;51.398;7.128;2023-07-02T07:42:22;17.40;;;14.30;;
2944;SDS011;1482;51.398;7.128;2023-07-02T07:44:48;19.47;;;16.60;;
2944;SDS011;1482;51.398;7.128;2023-07-02T07:47:13;22.60;;;17.00;;
2944;SDS011;1482;51.398;7.128;2023-07-02T07:49:39;18.20;;;13.30;;
2944;SDS011;1482;51.398;7.128;2023-07-02T07:52:04;17.87;;;12.77;;
2944;SDS011;1482;51.398;7.128;2023-07-02T07:54:32;21.03;;;14.37;;
2944;SDS011;1482;51.398;7.128;2023-07-02T07:56:57;18.70;;;12.30;;
2944;SDS011;1482;51.398;7.128;2023-07-02T07:59:23;17.23;;;13.97;;
2944;SDS011;1482;51.398;7.128;2023-07-02T08:01:49;19.40;;;13.80;;
2944;SDS011;1482;51.398;7.128;2023-07-02T08:04:14;19.20;;;13.70;;
2944;SDS011;1482;51.398;7.128;2023-07-02T08:06:40;15.30;;;12.97;;
2944;SDS011;1482;51.398;7.128;2023-07-02T08:09:05;20.27;;;13.17;;
2944;SDS011;1482;51.398;7.128;2023-07-02T08:11:31;20.87;;;13.30;;
2944;SDS011;1482;51.398;7.128;2023-07-02T08:13:57;22.60;;;12.90;;
2944;SDS011;1482;51.398;7.128;2023-07-02T08:16:23;22.43;;;14.50;;
2944;SDS011;1482;51.398;7.128;2023-07-02T08:18:48;22.60;;;14.70;;
2944;SDS011;1482;51.398;7.128;2023-07-02T08:21:14;24.67;;;14.40;;
2944;SDS011;1482;51.398;7.128;2023-07-02T08:23:41;23.27;;;13.77;;
2944;SDS011;1482;51.398;7.128;2023-07-02T08:26:08;25.67;;;15.63;;
2944;SDS011;1482;51.398;7.128;2023-07-02T08:28:35;24.27;;;12.80;;
2944;SDS011;1482;51.398;7.128;2023-07-02T08:31:01;17.80;;;12.23;;
2944;SDS011;1482;51.398;7.128;2023-07-02T08:33:26;21.33;;;14.13;;
2944;SDS011;1482;51.398;7.128;2023-07-02T08:35:52;19.00;;;13.00;;
2944;SDS011;1482;51.398;7.128;2023-07-02T08:38:17;21.27;;;12.67;;
2944;SDS011;1482;51.398;7.128;2023-07-02T08:40:43;16.87;;;12.10;;
2944;SDS011;1482;51.398;7.128;2023-07-02T08:43:09;21.40;;;12.10;;
2944;SDS011;1482;51.398;7.128;2023-07-02T08:45:34;15.30;;;11.67;;
2944;SDS011;1482;51.398;7.128;2023-07-02T08:48:01;18.50;;;11.43;;
2944;SDS011;1482;51.398;7.128;2023-07-02T08:50:27;28.47;;;12.03;;
2944;SDS011;1482;51.398;7.128;2023-07-02T08:52:53;15.50;;;9.90;;
2944;SDS011;1482;51.398;7.128;2023-07-02T08:55:19;14.67;;;10.10;;
2944;SDS011;1482;51.398;7.128;2023-07-02T08:57:52;18.00;;;11.03;;
2944;SDS011;1482;51.398;7.128;2023-07-02T09:00:19;17.67;;;11.90;;
2944;SDS011;1482;51.398;7.128;2023-07-02T09:02:46;15.37;;;12.30;;
2944;SDS011;1482;51.398;7.128;2023-07-02T09:05:12;16.87;;;10.83;;
2944;SDS011;1482;51.398;7.128;2023-07-02T09:07:47;21.63;;;10.17;;
2944;SDS011;1482;51.398;7.128;2023-07-02T09:10:29;14.07;;;10.53;;
2944;SDS011;1482;51.398;7.128;2023-07-02T09:13:07;16.53;;;10.87;;
2944;SDS011;1482;51.398;7.128;2023-07-02T09:15:38;16.90;;;11.17;;
2944;SDS011;1482;51.398;7.128;2023-07-02T09:18:17;14.87;;;10.43;;
2944;SDS011;1482;51.398;7.128;2023-07-02T09:20:44;15.57;;;10.07;;
2944;SDS011;1482;51.398;7.128;2023-07-02T09:23:11;14.30;;;9.83;;
2944;SDS011;1482;51.398;7.128;2023-07-02T09:25:37;16.07;;;9.70;;
2944;SDS011;1482;51.398;7.128;2023-07-02T09:28:13;12.63;;;9.60;;
2944;SDS011;1482;51.398;7.128;2023-07-02T09:30:58;16.00;;;10.57;;
2944;SDS011;1482;51.398;7.128;2023-07-02T09:33:24;15.63;;;9.10;;
2944;SDS011;1482;51.398;7.128;2023-07-02T09:35:50;14.30;;;9.00;;
2944;SDS011;1482;51.398;7.128;2023-07-02T09:38:16;15.20;;;10.43;;
2944;SDS011;1482;51.398;7.128;2023-07-02T09:40:50;18.73;;;10.50;;
2944;SDS011;1482;51.398;7.128;2023-07-02T09:43:17;16.03;;;10.20;;
2944;SDS011;1482;51.398;7.128;2023-07-02T09:45:44;12.20;;;9.77;;
2944;SDS011;1482;51.398;7.128;2023-07-02T09:48:14;17.83;;;11.47;;
2944;SDS011;1482;51.398;7.128;2023-07-02T09:50:41;14.20;;;11.00;;
2944;SDS011;1482;51.398;7.128;2023-07-02T09:53:08;18.93;;;10.33;;
2944;SDS011;1482;51.398;7.128;2023-07-02T09:55:35;20.40;;;11.67;;
2944;SDS011;1482;51.398;7.128;2023-07-02T09:58:01;16.53;;;11.07;;
2944;SDS011;1482;51.398;7.128;2023-07-02T10:00:27;17.43;;;11.53;;
2944;SDS011;1482;51.398;7.128;2023-07-02T10:02:52;18.10;;;11.80;;
2944;SDS011;1482;51.398;7.128;2023-07-02T10:05:28;18.63;;;12.10;;
2944;SDS011;1482;51.398;7.128;2023-07-02T10:07:55;16.50;;;11.30;;
2944;SDS011;1482;51.398;7.128;2023-07-02T10:10:26;20.80;;;12.80;;
2944;SDS011;1482;51.398;7.128;2023-07-02T10:12:52;20.80;;;11.20;;
2944;SDS011;1482;51.398;7.128;2023-07-02T10:15:28;17.73;;;10.60;;
2944;SDS011;1482;51.398;7.128;2023-07-02T10:17:56;18.80;;;11.77;;
2944;SDS011;1482;51.398;7.128;2023-07-02T10:23:05;21.20;;;11.80;;
2944;SDS011;1482;51.398;7.128;2023-07-02T10:25:33;20.60;;;12.37;;
2944;SDS011;1482;51.398;7.128;2023-07-02T10:28:02;18.47;;;11.93;;
2944;SDS011;1482;51.398;7.128;2023-07-02T10:30:39;21.00;;;10.87;;
2944;SDS011;1482;51.398;7.128;2023-07-02T10:35:34;17.13;;;9.97;;
2944;SDS011;1482;51.398;7.128;2023-07-02T10:38:00;18.90;;;11.10;;
2944;SDS011;1482;51.398;7.128;2023-07-02T10:40:26;19.90;;;10.27;;
2944;SDS011;1482;51.398;7.128;2023-07-02T10:42:52;14.40;;;10.97;;
2944;SDS011;1482;51.398;7.128;2023-07-02T10:45:18;17.40;;;12.33;;
2944;SDS011;1482;51.398;7.128;2023-07-02T10:47:44;21.10;;;12.50;;
2944;SDS011;1482;51.398;7.128;2023-07-02T10:50:21;19.43;;;13.80;;
2944;SDS011;1482;51.398;7.128;2023-07-02T10:52:48;18.77;;;11.50;;
2944;SDS011;1482;51.398;7.128;2023-07-02T10:55:17;21.17;;;10.90;;
2944;SDS011;1482;51.398;7.128;2023-07-02T10:57:47;13.83;;;10.67;;
2944;SDS011;1482;51.398;7.128;2023-07-02T11:00:17;19.43;;;11.80;;
2944;SDS011;1482;51.398;7.128;2023-07-02T11:02:43;19.03;;;11.60;;
2944;SDS011;1482;51.398;7.128;2023-07-02T11:05:09;18.00;;;11.80;;
2944;SDS011;1482;51.398;7.128;2023-07-02T11:07:39;12.80;;;9.57;;
2944;SDS011;1482;51.398;7.128;2023-07-02T11:10:05;16.60;;;10.40;;
2944;SDS011;1482;51.398;7.128;2023-07-02T11:12:31;13.93;;;9.40;;
2944;SDS011;1482;51.398;7.128;2023-07-02T11:15:10;14.27;;;9.57;;
2944;SDS011;1482;51.398;7.128;2023-07-02T11:17:37;15.70;;;11.03;;
2944;SDS011;1482;51.398;7.128;2023-07-02T11:20:03;20.53;;;10.43;;
2944;SDS011;1482;51.398;7.128;2023-07-02T11:22:32;15.07;;;9.17;;
2944;SDS011;1482;51.398;7.128;2023-07-02T11:25:07;17.63;;;11.47;;
2944;SDS011;1482;51.398;7.128;2023-07-02T11:27:41;16.00;;;9.63;;
2944;SDS011;1482;51.398;7.128;2023-07-02T11:30:06;14.90;;;9.30;;
2944;SDS011;1482;51.398;7.128;2023-07-02T11:35:14;13.17;;;10.13;;
2944;SDS011;1482;51.398;7.128;2023-07-02T11:37:41;13.50;;;8.87;;
2944;SDS011;1482;51.398;7.128;2023-07-02T11:40:07;12.83;;;8.53;;
2944;SDS011;1482;51.398;7.128;2023-07-02T11:42:33;12.50;;;8.53;;
2944;SDS011;1482;51.398;7.128;2023-07-02T11:44:58;14.00;;;8.53;;
2944;SDS011;1482;51.398;7.128;2023-07-02T11:47:24;14.87;;;9.07;;
2944;SDS011;1482;51.398;7.128;2023-07-02T11:49:52;16.60;;;9.80;;
2944;SDS011;1482;51.398;7.128;2023-07-02T11:52:18;17.30;;;9.23;;
2944;SDS011;1482;51.398;7.128;2023-07-02T11:54:43;16.90;;;8.73;;
2944;SDS011;1482;51.398;7.128;2023-07-02T11:57:09;14.73;;;9.00;;
2944;SDS011;1482;51.398;7.128;2023-07-02T11:59:34;16.00;;;8.43;;
2944;SDS011;1482;51.398;7.128;2023-07-02T12:02:01;10.13;;;7.87;;
2944;SDS011;1482;51.398;7.128;2023-07-02T12:04:27;10.83;;;8.40;;
2944;SDS011;1482;51.398;7.128;2023-07-02T12:06:52;16.83;;;9.43;;
2944;SDS011;1482;51.398;7.128;2023-07-02T12:09:18;11.23;;;8.20;;
2944;SDS011;1482;51.398;7.128;2023-07-02T12:11:43;11.77;;;7.97;;
2944;SDS011;1482;51.398;7.128;2023-07-02T12:14:10;16.30;;;7.90;;
2944;SDS011;1482;51.398;7.128;2023-07-02T12:16:36;14.90;;;8.43;;
2944;SDS011;1482;51.398;7.128;2023-07-02T12:19:02;11.23;;;7.63;;
2944;SDS011;1482;51.398;7.128;2023-07-02T12:21:27;13.20;;;8.07;;
2944;SDS011;1482;51.398;7.128;2023-07-02T12:23:53;9.40;;;7.77;;
2944;SDS011;1482;51.398;7.128;2023-07-02T12:26:18;11.47;;;7.63;;
2944;SDS011;1482;51.398;7.128;2023-07-02T12:28:44;14.47;;;9.00;;
2944;SDS011;1482;51.398;7.128;2023-07-02T12:31:10;15.50;;;6.77;;
2944;SDS011;1482;51.398;7.128;2023-07-02T12:33:37;17.50;;;8.53;;
2944;SDS011;1482;51.398;7.128;2023-07-02T12:36:03;9.80;;;7.70;;
2944;SDS011;1482;51.398;7.128;2023-07-02T12:38:29;11.87;;;7.50;;
2944;SDS011;1482;51.398;7.128;2023-07-02T12:40:55;13.30;;;8.80;;
2944;SDS011;1482;51.398;7.128;2023-07-02T12:43:20;11.23;;;7.53;;
2944;SDS011;1482;51.398;7.128;2023-07-02T12:45:46;15.53;;;8.77;;
2944;SDS011;1482;51.398;7.128;2023-07-02T12:48:12;14.73;;;8.83;;
2944;SDS011;1482;51.398;7.128;2023-07-02T12:50:38;11.53;;;8.10;;
2944;SDS011;1482;51.398;7.128;2023-07-02T12:53:04;12.90;;;8.47;;
2944;SDS011;1482;51.398;7.128;2023-07-02T12:55:30;11.97;;;8.00;;
2944;SDS011;1482;51.398;7.128;2023-07-02T12:57:55;17.03;;;9.40;;
2944;SDS011;1482;51.398;7.128;2023-07-02T13:00:21;15.70;;;9.33;;
2944;SDS011;1482;51.398;7.128;2023-07-02T13:02:47;19.77;;;9.27;;
2944;SDS011;1482;51.398;7.128;2023-07-02T13:05:13;13.97;;;9.27;;
2944;SDS011;1482;51.398;7.128;2023-07-02T13:07:38;14.17;;;9.70;;
2944;SDS011;1482;51.398;7.128;2023-07-02T13:10:04;14.37;;;9.40;;
2944;SDS011;1482;51.398;7.128;2023-07-02T13:12:30;14.00;;;8.70;;
2944;SDS011;1482;51.398;7.128;2023-07-02T13:14:56;21.23;;;9.40;;
2944;SDS011;1482;51.398;7.128;2023-07-02T13:17:21;11.00;;;9.30;;
2944;SDS011;1482;51.398;7.128;2023-07-02T13:19:47;11.17;;;8.67;;
2944;SDS011;1482;51.398;7.128;2023-07-02T13:22:14;10.43;;;8.00;;
2944;SDS011;1482;51.398;7.128;2023-07-02T13:24:39;10.60;;;8.70;;
2944;SDS011;1482;51.398;7.128;2023-07-02T13:27:09;17.40;;;8.53;;
2944;SDS011;1482;51.398;7.128;2023-07-02T13:29:38;12.90;;;9.33;;
2944;SDS011;1482;51.398;7.128;2023-07-02T13:32:04;20.97;;;10.90;;
2944;SDS011;1482;51.398;7.128;2023-07-02T13:34:30;15.67;;;9.30;;
2944;SDS011;1482;51.398;7.128;2023-07-02T13:36:55;15.20;;;9.90;;
2944;SDS011;1482;51.398;7.128;2023-07-02T13:39:21;20.63;;;9.63;;
2944;SDS011;1482;51.398;7.128;2023-07-02T13:41:47;18.23;;;11.50;;
2944;SDS011;1482;51.398;7.128;2023-07-02T13:44:12;13.67;;;8.93;;
2944;SDS011;1482;51.398;7.128;2023-07-02T13:46:38;16.47;;;10.50;;
2944;SDS011;1482;51.398;7.128;2023-07-02T13:49:04;15.30;;;9.30;;
2944;SDS011;1482;51.398;7.128;2023-07-02T13:51:29;17.03;;;11.07;;
2944;SDS011;1482;51.398;7.128;2023-07-02T13:53:55;17.50;;;10.17;;
2944;SDS011;1482;51.398;7.128;2023-07-02T13:56:20;14.37;;;10.00;;
2944;SDS011;1482;51.398;7.128;2023-07-02T14:01:21;13.40;;;8.73;;
2944;SDS011;1482;51.398;7.128;2023-07-02T14:03:47;16.90;;;9.80;;
2944;SDS011;1482;51.398;7.128;2023-07-02T14:06:12;14.63;;;9.70;;
2944;SDS011;1482;51.398;7.128;2023-07-02T14:08:38;13.60;;;10.27;;
2944;SDS011;1482;51.398;7.128;2023-07-02T14:11:03;15.23;;;8.90;;
2944;SDS011;1482;51.398;7.128;2023-07-02T14:13:29;15.93;;;9.20;;
2944;SDS011;1482;51.398;7.128;2023-07-02T14:15:54;14.83;;;9.30;;
2944;SDS011;1482;51.398;7.128;2023-07-02T14:18:20;12.73;;;8.83;;
2944;SDS011;1482;51.398;7.128;2023-07-02T14:20:46;16.27;;;11.43;;
2944;SDS011;1482;51.398;7.128;2023-07-02T14:23:12;15.00;;;10.10;;
2944;SDS011;1482;51.398;7.128;2023-07-02T14:25:37;16.70;;;10.13;;
2944;SDS011;1482;51.398;7.128;2023-07-02T14:28:03;14.60;;;8.70;;
2944;SDS011;1482;51.398;7.128;2023-07-02T14:30:29;19.07;;;10.97;;
2944;SDS011;1482;51.398;7.128;2023-07-02T14:32:54;13.50;;;9.97;;
2944;SDS011;1482;51.398;7.128;2023-07-02T14:35:20;20.97;;;10.97;;
2944;SDS011;1482;51.398;7.128;2023-07-02T14:37:50;15.30;;;10.03;;
2944;SDS011;1482;51.398;7.128;2023-07-02T14:40:15;15.50;;;10.57;;
2944;SDS011;1482;51.398;7.128;2023-07-02T14:42:41;17.53;;;10.50;;
2944;SDS011;1482;51.398;7.128;2023-07-02T14:45:07;17.27;;;10.60;;
2944;SDS011;1482;51.398;7.128;2023-07-02T14:47:34;17.53;;;10.50;;
2944;SDS011;1482;51.398;7.128;2023-07-02T14:50:00;13.33;;;9.47;;
2944;SDS011;1482;51.398;7.128;2023-07-02T14:52:25;16.77;;;10.20;;
2944;SDS011;1482;51.398;7.128;2023-07-02T14:54:51;19.53;;;9.90;;
2944;SDS011;1482;51.398;7.128;2023-07-02T14:57:17;19.63;;;9.80;;
2944;SDS011;1482;51.398;7.128;2023-07-02T14:59:44;11.57;;;9.43;;
2944;SDS011;1482;51.398;7.128;2023-07-02T15:02:12;20.90;;;10.07;;
2944;SDS011;1482;51.398;7.128;2023-07-02T15:04:37;16.63;;;10.93;;